createdAt,value
2023-03-04T00:02:10.393Z,3.70
2023-03-04T00:04:37.446Z,3.70
2023-03-04T00:07:04.559Z,3.60
2023-03-04T00:09:31.660Z,3.60
2023-03-04T00:11:59.078Z,3.60
2023-03-04T00:14:26.655Z,3.60
2023-03-04T00:16:54.762Z,3.60
2023-03-04T00:19:24.868Z,3.60
2023-03-04T00:21:51.984Z,3.70
2023-03-04T00:24:19.060Z,3.60
2023-03-04T00:26:46.578Z,3.60
2023-03-04T00:29:13.829Z,3.60
2023-03-04T00:31:41.090Z,3.60
2023-03-04T00:34:08.283Z,3.60
2023-03-04T00:36:35.385Z,3.70
2023-03-04T00:39:02.602Z,3.60
2023-03-04T00:41:29.781Z,3.60
2023-03-04T00:43:56.841Z,3.60
2023-03-04T00:46:23.979Z,3.60
2023-03-04T00:48:52.105Z,3.60
2023-03-04T00:51:19.274Z,3.60
2023-03-04T00:53:47.466Z,3.60
2023-03-04T00:56:14.916Z,3.50
2023-03-04T00:58:42.033Z,3.50
2023-03-04T01:01:09.204Z,3.50
2023-03-04T01:03:36.758Z,3.60
2023-03-04T01:06:05.252Z,3.50
2023-03-04T01:08:32.442Z,3.60
2023-03-04T01:10:59.548Z,3.60
2023-03-04T01:13:26.626Z,3.60
2023-03-04T01:15:53.683Z,3.60
2023-03-04T01:18:20.945Z,3.60
2023-03-04T01:20:48.044Z,3.60
2023-03-04T01:23:15.192Z,3.60
2023-03-04T01:25:42.639Z,3.60
2023-03-04T01:28:09.727Z,3.70
2023-03-04T01:30:37.079Z,3.70
2023-03-04T01:33:04.322Z,3.70
2023-03-04T01:35:31.447Z,3.70
2023-03-04T01:37:58.575Z,3.70
2023-03-04T01:40:25.890Z,3.60
2023-03-04T01:42:53.017Z,3.60
2023-03-04T01:45:21.061Z,3.70
2023-03-04T01:47:49.585Z,3.60
2023-03-04T01:50:32.806Z,3.60
2023-03-04T01:53:00.908Z,3.70
2023-03-04T01:55:29.419Z,3.70
2023-03-04T01:57:59.929Z,3.70
2023-03-04T02:00:33.708Z,3.70
2023-03-04T02:03:12.542Z,3.70
2023-03-04T02:05:51.332Z,3.70
2023-03-04T02:08:22.792Z,3.60
2023-03-04T02:10:51.986Z,3.70
2023-03-04T02:13:19.518Z,3.80
2023-03-04T02:15:47.377Z,3.80
2023-03-04T02:18:24.147Z,3.70
2023-03-04T02:21:20.444Z,3.70
2023-03-04T02:24:13.535Z,3.60
2023-03-04T02:26:43.525Z,3.70
2023-03-04T02:29:15.217Z,3.70
2023-03-04T02:31:49.142Z,3.60
2023-03-04T02:34:23.340Z,3.70
2023-03-04T02:36:53.443Z,3.70
2023-03-04T02:39:20.626Z,3.70
2023-03-04T02:41:51.649Z,3.70
2023-03-04T02:44:24.960Z,3.80
2023-03-04T02:46:53.694Z,3.70
2023-03-04T02:49:22.276Z,3.80
2023-03-04T02:52:08.542Z,3.80
2023-03-04T02:54:38.365Z,3.80
2023-03-04T02:57:10.248Z,3.80
2023-03-04T02:59:41.641Z,3.80
2023-03-04T03:02:10.276Z,3.70
2023-03-04T03:04:39.615Z,3.70
2023-03-04T03:07:09.767Z,3.80
2023-03-04T03:09:36.872Z,3.70
2023-03-04T03:12:04.276Z,3.80
2023-03-04T03:14:32.743Z,3.70
2023-03-04T03:17:01.032Z,3.80
2023-03-04T03:19:28.111Z,3.80
2023-03-04T03:21:55.403Z,3.80
2023-03-04T03:24:22.555Z,3.80
2023-03-04T03:26:50.042Z,3.80
2023-03-04T03:29:17.369Z,3.80
2023-03-04T03:31:44.585Z,3.90
2023-03-04T03:34:11.946Z,3.80
2023-03-04T03:36:39.106Z,3.90
2023-03-04T03:39:06.239Z,3.90
2023-03-04T03:41:33.487Z,3.90
2023-03-04T03:44:01.647Z,3.90
2023-03-04T03:46:29.870Z,3.90
2023-03-04T03:48:56.944Z,3.80
2023-03-04T03:51:24.205Z,3.90
2023-03-04T03:53:51.247Z,3.80
2023-03-04T03:56:18.360Z,3.90
2023-03-04T03:58:45.431Z,3.90
2023-03-04T04:01:12.479Z,3.90
2023-03-04T04:03:39.643Z,3.90
2023-03-04T04:06:07.224Z,3.90
2023-03-04T04:08:34.503Z,3.90
2023-03-04T04:11:01.621Z,4.00
2023-03-04T04:13:28.707Z,3.90
2023-03-04T04:15:55.835Z,3.90
2023-03-04T04:18:24.043Z,3.90
2023-03-04T04:20:53.734Z,3.90
2023-03-04T04:23:20.958Z,3.80
2023-03-04T04:25:48.270Z,3.80
2023-03-04T04:28:15.335Z,3.80
2023-03-04T04:30:42.614Z,3.80
2023-03-04T04:33:10.402Z,3.80
2023-03-04T04:35:38.984Z,3.80
2023-03-04T04:38:07.995Z,3.90
2023-03-04T04:40:35.413Z,3.90
2023-03-04T04:43:03.114Z,3.90
2023-03-04T04:45:30.361Z,3.90
2023-03-04T04:47:57.587Z,3.90
2023-03-04T04:50:25.865Z,3.90
2023-03-04T04:52:52.960Z,3.90
2023-03-04T04:55:20.077Z,3.90
2023-03-04T04:57:47.132Z,3.90
2023-03-04T05:00:14.897Z,3.90
2023-03-04T05:02:41.971Z,3.90
2023-03-04T05:05:09.425Z,3.80
2023-03-04T05:07:37.056Z,3.80
2023-03-04T05:10:05.775Z,3.80
2023-03-04T05:12:32.857Z,3.90
2023-03-04T05:14:59.961Z,3.90
2023-03-04T05:17:27.103Z,3.90
2023-03-04T05:19:54.155Z,3.90
2023-03-04T05:22:21.249Z,4.00
2023-03-04T05:24:48.435Z,4.00
2023-03-04T05:27:15.574Z,4.00
2023-03-04T05:29:44.778Z,4.00
2023-03-04T05:32:12.060Z,4.00
2023-03-04T05:34:39.166Z,4.00
2023-03-04T05:37:06.344Z,4.00
2023-03-04T05:39:33.430Z,4.00
2023-03-04T05:42:00.546Z,4.00
2023-03-04T05:44:27.693Z,3.90
2023-03-04T05:46:54.836Z,4.00
2023-03-04T05:49:22.008Z,3.90
2023-03-04T05:51:49.092Z,3.90
2023-03-04T05:54:16.317Z,3.90
2023-03-04T05:56:43.394Z,3.90
2023-03-04T05:59:10.456Z,3.90
2023-03-04T06:01:37.513Z,3.90
2023-03-04T06:04:04.995Z,3.90
2023-03-04T06:06:32.138Z,3.90
2023-03-04T06:09:00.426Z,3.90
2023-03-04T06:11:27.627Z,3.90
2023-03-04T06:13:54.862Z,3.90
2023-03-04T06:16:22.219Z,3.90
2023-03-04T06:18:49.292Z,3.90
2023-03-04T06:21:16.375Z,3.90
2023-03-04T06:23:45.185Z,3.90
2023-03-04T06:26:15.546Z,3.90
2023-03-04T06:28:44.063Z,3.90
2023-03-04T06:31:11.456Z,3.90
2023-03-04T06:33:38.605Z,3.90
2023-03-04T06:36:06.318Z,3.90
2023-03-04T06:38:34.333Z,3.90
2023-03-04T06:41:12.525Z,3.90
2023-03-04T06:43:40.345Z,4.00
2023-03-04T06:46:08.917Z,4.00
2023-03-04T06:48:36.689Z,4.00
2023-03-04T06:51:12.275Z,4.00
2023-03-04T06:53:40.462Z,4.00
2023-03-04T06:56:11.816Z,4.00
2023-03-04T06:58:39.226Z,4.00
2023-03-04T07:01:23.612Z,4.00
2023-03-04T07:03:52.113Z,4.00
2023-03-04T07:06:23.813Z,4.00
2023-03-04T07:08:51.168Z,4.00
2023-03-04T07:11:22.085Z,4.00
2023-03-04T07:13:50.677Z,4.00
2023-03-04T07:16:21.727Z,4.10
2023-03-04T07:18:49.721Z,4.10
2023-03-04T07:21:17.789Z,4.00
2023-03-04T07:23:45.519Z,4.10
2023-03-04T07:26:13.084Z,4.10
2023-03-04T07:28:40.394Z,4.10
2023-03-04T07:31:30.247Z,4.20
2023-03-04T07:34:03.632Z,4.20
2023-03-04T07:36:31.383Z,4.30
2023-03-04T07:38:58.421Z,4.40
2023-03-04T07:41:27.873Z,4.40
2023-03-04T07:43:57.444Z,4.30
2023-03-04T07:46:25.406Z,4.30
2023-03-04T07:48:52.902Z,4.40
2023-03-04T07:51:24.143Z,4.40
2023-03-04T07:54:00.031Z,4.40
2023-03-04T07:56:31.338Z,4.40
2023-03-04T07:58:58.924Z,4.50
2023-03-04T08:01:33.670Z,4.50
2023-03-04T08:04:02.542Z,4.60
2023-03-04T08:06:30.562Z,4.60
2023-03-04T08:09:05.840Z,4.60
2023-03-04T08:11:35.463Z,4.60
2023-03-04T08:14:03.069Z,4.60
2023-03-04T08:16:30.523Z,4.60
2023-03-04T08:18:59.803Z,4.60
2023-03-04T08:21:28.234Z,4.60
2023-03-04T08:23:58.269Z,4.50
2023-03-04T08:26:40.674Z,4.50
2023-03-04T08:29:11.613Z,4.50
2023-03-04T08:31:39.501Z,4.50
2023-03-04T08:34:08.586Z,4.50
2023-03-04T08:36:35.834Z,4.50
2023-03-04T08:39:04.674Z,4.50
2023-03-04T08:41:32.410Z,4.50
2023-03-04T08:44:00.536Z,4.50
2023-03-04T08:46:28.235Z,4.50
2023-03-04T08:48:55.309Z,4.60
2023-03-04T08:51:23.533Z,4.60
2023-03-04T08:53:50.663Z,4.60
2023-03-04T08:56:19.315Z,4.70
2023-03-04T08:58:46.678Z,4.70
2023-03-04T09:01:17.178Z,4.60
2023-03-04T09:03:45.169Z,4.60
2023-03-04T09:06:18.254Z,4.70
2023-03-04T09:09:07.881Z,4.60
2023-03-04T09:11:38.317Z,4.60
2023-03-04T09:14:17.246Z,4.60
2023-03-04T09:17:05.026Z,4.60
2023-03-04T09:19:40.938Z,4.60
2023-03-04T09:22:27.895Z,4.60
2023-03-04T09:25:19.601Z,4.60
2023-03-04T09:27:57.394Z,4.60
2023-03-04T09:30:29.131Z,4.60
2023-03-04T09:32:57.705Z,4.50
2023-03-04T09:35:25.781Z,4.60
2023-03-04T09:37:54.282Z,4.60
2023-03-04T09:40:26.129Z,4.60
2023-03-04T09:42:58.641Z,4.60
2023-03-04T09:45:37.580Z,4.60
2023-03-04T09:48:07.295Z,4.60
2023-03-04T09:50:39.211Z,4.70
2023-03-04T09:53:22.776Z,4.70
2023-03-04T09:55:52.563Z,4.80
2023-03-04T09:58:47.534Z,4.90
2023-03-04T10:01:34.982Z,4.90
2023-03-04T10:04:12.306Z,4.80
2023-03-04T10:06:41.878Z,4.90
2023-03-04T10:09:23.277Z,5.00
2023-03-04T10:12:13.816Z,5.00
2023-03-04T10:14:51.197Z,5.00
2023-03-04T10:17:40.527Z,5.00
2023-03-04T10:20:30.060Z,5.00
2023-03-04T10:23:01.198Z,5.00
2023-03-04T10:25:30.786Z,5.00
2023-03-04T10:28:03.021Z,5.00
2023-03-04T10:31:02.553Z,5.10
2023-03-04T10:33:35.235Z,5.00
2023-03-04T10:36:06.939Z,5.00
2023-03-04T10:38:41.173Z,5.10
2023-03-04T10:41:24.874Z,5.30
2023-03-04T10:44:17.088Z,5.40
2023-03-04T10:46:49.636Z,5.40
2023-03-04T10:49:19.442Z,5.40
2023-03-04T10:52:08.767Z,5.40
2023-03-04T10:54:50.075Z,5.30
2023-03-04T10:57:25.977Z,5.40
2023-03-04T10:59:58.472Z,5.50
2023-03-04T11:02:37.897Z,5.60
2023-03-04T11:05:20.291Z,5.60
2023-03-04T11:08:00.119Z,5.70
2023-03-04T11:10:41.144Z,5.80
2023-03-04T11:13:24.008Z,6.00
2023-03-04T11:16:03.504Z,6.30
2023-03-04T11:18:54.008Z,6.50
2023-03-04T11:21:24.846Z,6.60
2023-03-04T11:24:01.515Z,6.70
2023-03-04T11:26:45.900Z,6.60
2023-03-04T11:29:26.627Z,6.40
2023-03-04T11:32:21.033Z,6.50
2023-03-04T11:35:13.000Z,6.30
2023-03-04T11:38:00.850Z,6.30
2023-03-04T11:40:49.990Z,5.90
2023-03-04T11:43:34.802Z,6.00
2023-03-04T11:46:26.809Z,6.00
2023-03-04T11:49:43.581Z,5.90
2023-03-04T11:52:38.633Z,5.90
2023-03-04T11:55:08.729Z,6.00
2023-03-04T11:58:05.927Z,6.00
2023-03-04T12:00:59.945Z,6.00
2023-03-04T12:04:04.600Z,6.00
2023-03-04T12:07:19.654Z,6.00
2023-03-04T12:09:58.086Z,6.00
2023-03-04T12:13:06.947Z,6.10
2023-03-04T12:15:40.246Z,6.10
2023-03-04T12:18:48.086Z,6.30
2023-03-04T12:21:55.681Z,6.50
2023-03-04T12:25:17.374Z,6.50
2023-03-04T12:28:32.516Z,6.60
2023-03-04T12:31:43.344Z,6.50
2023-03-04T12:34:41.182Z,6.40
2023-03-04T12:37:11.828Z,6.50
2023-03-04T12:40:06.885Z,6.50
2023-03-04T12:43:04.305Z,6.50
2023-03-04T12:46:07.143Z,6.60
2023-03-04T12:48:41.779Z,6.60
2023-03-04T12:51:46.118Z,6.50
2023-03-04T12:54:40.766Z,6.50
2023-03-04T12:57:21.031Z,6.70
2023-03-04T13:00:13.044Z,6.90
2023-03-04T13:02:49.842Z,7.10
2023-03-04T13:05:57.376Z,7.20
2023-03-04T13:08:48.623Z,7.10
2023-03-04T13:11:31.313Z,7.00
2023-03-04T13:14:18.197Z,6.90
2023-03-04T13:16:57.154Z,7.00
2023-03-04T13:20:15.735Z,7.00
2023-03-04T13:22:53.704Z,7.00
2023-03-04T13:25:39.038Z,6.90
2023-03-04T13:28:11.535Z,6.90
2023-03-04T13:30:38.852Z,6.80
2023-03-04T13:33:09.083Z,6.80
2023-03-04T13:36:01.774Z,6.70
2023-03-04T13:38:30.875Z,6.60
2023-03-04T13:41:19.550Z,6.50
2023-03-04T13:43:49.880Z,6.50
2023-03-04T13:46:20.093Z,6.50
2023-03-04T13:48:50.393Z,6.40
2023-03-04T13:51:29.702Z,6.50
2023-03-04T13:54:00.814Z,6.60
2023-03-04T13:56:38.513Z,6.60
2023-03-04T13:59:08.692Z,6.60
2023-03-04T14:01:43.852Z,6.60
2023-03-04T14:04:27.873Z,6.70
2023-03-04T14:06:58.342Z,6.80
2023-03-04T14:09:35.064Z,6.70
2023-03-04T14:12:15.194Z,6.60
2023-03-04T14:14:52.332Z,6.70
2023-03-04T14:17:29.855Z,6.90
2023-03-04T14:19:57.782Z,7.00
2023-03-04T14:22:41.005Z,7.00
2023-03-04T14:25:14.326Z,7.00
2023-03-04T14:27:41.620Z,7.00
2023-03-04T14:30:41.454Z,7.00
2023-03-04T14:33:26.088Z,7.00
2023-03-04T14:36:00.365Z,7.00
2023-03-04T14:38:41.619Z,7.00
2023-03-04T14:41:25.599Z,6.90
2023-03-04T14:44:09.924Z,7.00
2023-03-04T14:46:56.854Z,6.90
2023-03-04T14:49:35.315Z,6.90
2023-03-04T14:52:02.674Z,6.90
2023-03-04T14:54:41.922Z,6.90
2023-03-04T14:57:32.404Z,6.80
2023-03-04T15:00:20.346Z,6.80
2023-03-04T15:03:03.512Z,6.90
2023-03-04T15:05:34.449Z,6.80
2023-03-04T15:08:37.402Z,6.80
2023-03-04T15:11:07.153Z,6.70
2023-03-04T15:13:46.926Z,6.70
2023-03-04T15:16:17.072Z,6.80
2023-03-04T15:19:05.926Z,6.90
2023-03-04T15:21:41.886Z,6.90
2023-03-04T15:24:11.722Z,6.80
2023-03-04T15:26:41.702Z,6.70
2023-03-04T15:29:20.957Z,6.70
2023-03-04T15:31:48.810Z,6.70
2023-03-04T15:34:19.350Z,6.70
2023-03-04T15:36:50.086Z,6.60
2023-03-04T15:39:18.898Z,6.60
2023-03-04T15:41:50.565Z,6.50
2023-03-04T15:44:17.786Z,6.50
2023-03-04T15:46:44.977Z,6.50
2023-03-04T15:49:12.060Z,6.60
2023-03-04T15:51:39.530Z,6.60
2023-03-04T15:54:14.255Z,6.60
2023-03-04T15:56:41.536Z,6.70
2023-03-04T15:59:14.685Z,6.80
2023-03-04T16:01:42.437Z,6.70
2023-03-04T16:04:16.944Z,6.80
2023-03-04T16:06:47.304Z,6.90
2023-03-04T16:09:18.626Z,6.90
2023-03-04T16:11:47.827Z,6.80
2023-03-04T16:14:16.855Z,6.90
2023-03-04T16:16:44.708Z,6.80
2023-03-04T16:19:11.892Z,6.80
2023-03-04T16:21:39.015Z,7.00
2023-03-04T16:24:06.559Z,7.00
2023-03-04T16:26:34.240Z,6.90
2023-03-04T16:29:02.331Z,6.90
2023-03-04T16:31:29.832Z,6.80
2023-03-04T16:33:57.046Z,6.80
2023-03-04T16:36:27.380Z,6.80
2023-03-04T16:39:11.113Z,6.90
2023-03-04T16:41:38.222Z,6.80
2023-03-04T16:44:06.031Z,6.80
2023-03-04T16:46:33.263Z,6.70
2023-03-04T16:49:00.441Z,6.70
2023-03-04T16:51:27.617Z,6.70
2023-03-04T16:54:00.248Z,6.70
2023-03-04T16:56:28.821Z,6.70
2023-03-04T16:58:56.012Z,6.70
2023-03-04T17:01:26.545Z,6.60
2023-03-04T17:03:55.298Z,6.50
2023-03-04T17:06:24.689Z,6.60
2023-03-04T17:08:52.359Z,6.60
2023-03-04T17:11:23.445Z,6.60
2023-03-04T17:13:51.939Z,6.40
2023-03-04T17:16:19.673Z,6.40
2023-03-04T17:18:47.014Z,6.40
2023-03-04T17:21:20.231Z,6.40
2023-03-04T17:23:47.696Z,6.40
2023-03-04T17:26:16.622Z,6.40
2023-03-04T17:28:43.748Z,6.40
2023-03-04T17:31:17.425Z,6.40
2023-03-04T17:33:46.144Z,6.40
2023-03-04T17:36:16.244Z,6.30
2023-03-04T17:38:43.961Z,6.30
2023-03-04T17:41:16.213Z,6.30
2023-03-04T17:43:49.398Z,6.30
2023-03-04T17:46:22.553Z,6.20
2023-03-04T17:48:55.194Z,6.30
2023-03-04T17:51:36.874Z,6.30
2023-03-04T17:54:07.727Z,6.20
2023-03-04T17:56:37.801Z,6.20
2023-03-04T17:59:08.213Z,6.20
2023-03-04T18:01:35.692Z,6.10
2023-03-04T18:04:03.325Z,6.10
2023-03-04T18:06:30.424Z,6.20
2023-03-04T18:08:57.719Z,6.20
2023-03-04T18:11:26.848Z,6.20
2023-03-04T18:13:56.488Z,6.20
2023-03-04T18:16:26.690Z,6.20
2023-03-04T18:18:58.808Z,6.20
2023-03-04T18:21:28.426Z,6.20
2023-03-04T18:23:57.160Z,6.20
2023-03-04T18:26:25.471Z,6.10
2023-03-04T18:28:54.782Z,6.20
2023-03-04T18:31:26.076Z,6.10
2023-03-04T18:33:54.099Z,6.00
2023-03-04T18:36:21.328Z,6.00
2023-03-04T18:38:48.448Z,6.00
2023-03-04T18:41:16.644Z,6.00
2023-03-04T18:43:44.057Z,6.00
2023-03-04T18:46:17.155Z,6.00
2023-03-04T18:48:50.810Z,5.90
2023-03-04T18:51:18.148Z,5.80
2023-03-04T18:53:45.221Z,5.80
2023-03-04T18:56:17.859Z,5.90
2023-03-04T18:58:47.371Z,5.80
2023-03-04T19:01:16.926Z,5.80
2023-03-04T19:03:45.862Z,5.70
2023-03-04T19:06:13.211Z,5.70
2023-03-04T19:08:40.284Z,5.70
2023-03-04T19:11:07.464Z,5.70
2023-03-04T19:13:34.766Z,5.60
2023-03-04T19:16:01.850Z,5.60
2023-03-04T19:18:29.400Z,5.60
2023-03-04T19:21:00.633Z,5.60
2023-03-04T19:23:29.289Z,5.60
2023-03-04T19:25:56.360Z,5.60
2023-03-04T19:28:24.310Z,5.50
2023-03-04T19:30:53.083Z,5.50
2023-03-04T19:33:23.692Z,5.60
2023-03-04T19:35:51.299Z,5.60
2023-03-04T19:38:18.457Z,5.60
2023-03-04T19:40:46.921Z,5.60
2023-03-04T19:43:15.357Z,5.60
2023-03-04T19:45:42.596Z,5.60
2023-03-04T19:48:09.822Z,5.60
2023-03-04T19:50:37.000Z,5.50
2023-03-04T19:53:04.124Z,5.50
2023-03-04T19:55:31.759Z,5.40
2023-03-04T19:57:58.961Z,5.40
2023-03-04T20:00:26.133Z,5.40
2023-03-04T20:02:55.937Z,5.50
2023-03-04T20:05:22.990Z,5.40
2023-03-04T20:07:50.045Z,5.40
2023-03-04T20:10:18.902Z,5.40
2023-03-04T20:12:46.100Z,5.40
2023-03-04T20:15:13.271Z,5.40
2023-03-04T20:17:40.367Z,5.40
2023-03-04T20:20:10.710Z,5.50
2023-03-04T20:22:38.336Z,5.40
2023-03-04T20:25:05.969Z,5.40
2023-03-04T20:27:33.153Z,5.30
2023-03-04T20:30:03.295Z,5.30
2023-03-04T20:32:30.917Z,5.30
2023-03-04T20:34:58.363Z,5.30
2023-03-04T20:37:25.609Z,5.30
2023-03-04T20:39:52.677Z,5.30
2023-03-04T20:42:19.818Z,5.30
2023-03-04T20:44:47.025Z,5.30
2023-03-04T20:47:14.172Z,5.20
2023-03-04T20:49:41.549Z,5.20
2023-03-04T20:52:09.145Z,5.20
2023-03-04T20:54:38.701Z,5.20
2023-03-04T20:57:08.114Z,5.30
2023-03-04T20:59:37.862Z,5.30
2023-03-04T21:02:08.740Z,5.40
2023-03-04T21:04:36.244Z,5.30
2023-03-04T21:07:04.286Z,5.20
2023-03-04T21:09:31.474Z,5.20
2023-03-04T21:12:00.825Z,5.20
2023-03-04T21:14:33.427Z,5.10
2023-03-04T21:17:03.824Z,5.10
2023-03-04T21:19:39.934Z,5.10
2023-03-04T21:22:07.503Z,5.10
2023-03-04T21:24:36.705Z,5.10
2023-03-04T21:27:04.746Z,5.10
2023-03-04T21:29:31.848Z,5.10
2023-03-04T21:32:17.204Z,5.10
2023-03-04T21:34:51.895Z,5.10
2023-03-04T21:37:20.977Z,5.10
2023-03-04T21:39:48.301Z,5.10
2023-03-04T21:42:15.462Z,5.20
2023-03-04T21:44:49.581Z,5.20
2023-03-04T21:47:18.872Z,5.20
2023-03-04T21:49:46.063Z,5.20
2023-03-04T21:52:13.384Z,5.10
2023-03-04T21:54:40.552Z,5.10
2023-03-04T21:57:07.599Z,5.00
2023-03-04T21:59:34.748Z,4.90
2023-03-04T22:02:02.538Z,4.90
2023-03-04T22:04:30.135Z,4.90
2023-03-04T22:06:57.197Z,4.90
2023-03-04T22:09:24.305Z,5.00
2023-03-04T22:11:51.429Z,5.00
2023-03-04T22:14:18.449Z,5.00
2023-03-04T22:16:59.056Z,4.90
2023-03-04T22:19:31.191Z,4.90
2023-03-04T22:21:59.428Z,4.90
2023-03-04T22:24:26.795Z,4.80
2023-03-04T22:26:53.862Z,4.80
2023-03-04T22:29:20.991Z,4.80
2023-03-04T22:31:48.251Z,4.80
2023-03-04T22:34:16.695Z,4.90
2023-03-04T22:36:46.628Z,4.80
2023-03-04T22:39:19.379Z,4.80
2023-03-04T22:41:47.250Z,4.70
2023-03-04T22:44:14.356Z,4.70
2023-03-04T22:46:42.222Z,4.70
2023-03-04T22:49:11.531Z,4.80
2023-03-04T22:51:42.401Z,4.70
2023-03-04T22:54:16.692Z,4.70
2023-03-04T22:56:44.722Z,4.70
2023-03-04T22:59:11.972Z,4.60
2023-03-04T23:01:39.127Z,4.70
2023-03-04T23:04:06.519Z,4.70
2023-03-04T23:06:33.691Z,4.60
2023-03-04T23:09:01.209Z,4.70
2023-03-04T23:11:32.889Z,4.70
2023-03-04T23:14:02.236Z,4.60
2023-03-04T23:16:29.526Z,4.60
2023-03-04T23:18:59.325Z,4.60
2023-03-04T23:21:33.854Z,4.50
2023-03-04T23:24:03.474Z,4.50
2023-03-04T23:26:35.000Z,4.50
2023-03-04T23:29:05.288Z,4.50
2023-03-04T23:31:34.307Z,4.50
2023-03-04T23:34:03.261Z,4.60
2023-03-04T23:36:36.353Z,4.70
2023-03-04T23:39:05.594Z,4.60
2023-03-04T23:41:34.551Z,4.60
2023-03-04T23:44:02.231Z,4.70
2023-03-04T23:46:29.582Z,4.60
2023-03-04T23:48:56.896Z,4.60
2023-03-04T23:51:28.506Z,4.60
2023-03-04T23:53:55.969Z,4.60
2023-03-04T23:56:30.039Z,4.60
2023-03-04T23:58:58.700Z,4.60
